Time;durP1;ratioP1;P1;durP2;ratioP2;P2;SDS_P1;SDS_P2;PMS_P1;PMS_P2;Temp;Humidity;BMP_temperature;BMP_pressure;BME280_temperature;BME280_humidity;BME280_pressure;Samples;Min_cycle;Max_cycle;Signal;HPM_P1;HPM_P2
2023/03/01 00:02:06;;;;;;;24.00;17.40;;;1.40;99.90;;;;;;4997932;28;20191;-74
2023/03/01 00:04:31;;;;;;;22.93;15.60;;;1.40;99.90;;;;;;4996844;28;20175;-74
2023/03/01 00:06:57;;;;;;;20.20;16.20;;;1.40;99.90;;;;;;4985574;28;20437;-73
2023/03/01 00:09:23;;;;;;;19.00;15.73;;;1.40;99.90;;;;;;5005190;28;20673;-72
2023/03/01 00:11:49;;;;;;;20.57;16.53;;;1.40;99.90;;;;;;5004540;28;20190;-72
2023/03/01 00:14:16;;;;;;;25.87;17.30;;;1.40;99.90;;;;;;4989585;28;20183;-71
2023/03/01 00:16:43;;;;;;;20.83;16.67;;;1.30;99.90;;;;;;5003892;28;20457;-71
2023/03/01 00:19:12;;;;;;;20.07;15.90;;;1.30;99.90;;;;;;5004265;28;20441;-71
2023/03/01 00:21:38;;;;;;;24.00;17.60;;;1.10;99.90;;;;;;4997443;28;20455;-72
2023/03/01 00:24:03;;;;;;;18.83;15.03;;;1.10;99.90;;;;;;4998696;28;20450;-75
2023/03/01 00:26:29;;;;;;;20.17;15.80;;;1.20;99.90;;;;;;4996760;28;20342;-75
2023/03/01 00:28:57;;;;;;;18.73;15.33;;;1.20;99.90;;;;;;4985591;28;20184;-75
2023/03/01 00:31:25;;;;;;;21.07;15.53;;;1.20;99.90;;;;;;4998527;28;20469;-70
2023/03/01 00:33:59;;;;;;;19.03;15.50;;;1.20;99.90;;;;;;5003190;28;20414;-73
2023/03/01 00:36:30;;;;;;;21.43;16.73;;;1.30;99.90;;;;;;4998411;28;20427;-71
2023/03/01 00:38:56;;;;;;;21.17;15.33;;;1.20;99.90;;;;;;4985701;28;20453;-71
2023/03/01 00:41:22;;;;;;;18.47;14.43;;;1.30;99.90;;;;;;4998085;28;20746;-70
2023/03/01 00:43:49;;;;;;;18.30;15.77;;;1.20;99.90;;;;;;4993633;28;20452;-71
2023/03/01 00:46:18;;;;;;;17.43;15.37;;;1.10;99.90;;;;;;4995062;28;20425;-71
2023/03/01 00:48:44;;;;;;;19.93;15.93;;;1.20;99.90;;;;;;4995884;28;20415;-70
2023/03/01 00:51:16;;;;;;;23.03;14.87;;;1.30;99.90;;;;;;4992780;28;20778;-72
2023/03/01 00:53:42;;;;;;;18.90;15.30;;;1.10;99.90;;;;;;4991745;28;20403;-73
2023/03/01 00:56:13;;;;;;;21.23;16.87;;;1.10;99.90;;;;;;4996335;28;20445;-72
2023/03/01 00:58:39;;;;;;;21.50;16.47;;;1.10;99.90;;;;;;5000650;28;20446;-72
2023/03/01 01:01:19;;;;;;;19.43;15.10;;;1.10;99.90;;;;;;4991776;28;21344;-70
2023/03/01 01:03:52;;;;;;;21.97;15.77;;;1.10;99.90;;;;;;4969206;28;20522;-75
2023/03/01 01:06:22;;;;;;;19.13;16.20;;;1.10;99.90;;;;;;4985270;28;20482;-72
2023/03/01 01:08:49;;;;;;;21.20;16.33;;;1.10;99.90;;;;;;4984781;28;20441;-72
2023/03/01 01:11:15;;;;;;;20.17;15.70;;;1.10;99.90;;;;;;4984039;28;20855;-70
2023/03/01 01:13:41;;;;;;;21.70;16.83;;;1.00;99.90;;;;;;4993253;28;20479;-71
2023/03/01 01:16:07;;;;;;;19.33;16.00;;;1.00;99.90;;;;;;4977555;28;20497;-72
2023/03/01 01:18:33;;;;;;;20.57;16.30;;;1.00;99.90;;;;;;4985487;28;20912;-71
2023/03/01 01:21:05;;;;;;;19.90;15.90;;;1.10;99.90;;;;;;4985542;28;20455;-71
2023/03/01 01:23:31;;;;;;;19.90;16.70;;;1.00;99.90;;;;;;4992866;28;20171;-72
2023/03/01 01:25:56;;;;;;;22.97;16.93;;;0.70;99.90;;;;;;4997823;28;20480;-74
2023/03/01 01:28:22;;;;;;;22.23;17.73;;;0.70;99.90;;;;;;4990873;28;20211;-75
2023/03/01 01:30:47;;;;;;;20.33;17.33;;;0.70;99.90;;;;;;4989623;28;20191;-71
2023/03/01 01:33:13;;;;;;;18.63;15.53;;;0.70;99.90;;;;;;4995927;28;20253;-72
2023/03/01 01:35:38;;;;;;;22.20;17.37;;;0.70;99.90;;;;;;4968309;28;20215;-72
2023/03/01 01:38:04;;;;;;;22.83;16.40;;;0.80;99.90;;;;;;4999211;28;20193;-71
2023/03/01 01:40:29;;;;;;;21.40;16.30;;;0.80;99.90;;;;;;5002610;28;20190;-74
2023/03/01 01:42:55;;;;;;;22.17;16.60;;;0.70;99.90;;;;;;5006802;28;20213;-73
2023/03/01 01:45:28;;;;;;;23.33;17.67;;;0.60;99.90;;;;;;5003901;28;20874;-72
2023/03/01 01:47:58;;;;;;;21.70;16.90;;;0.70;99.90;;;;;;4982580;28;20720;-73
2023/03/01 01:50:24;;;;;;;24.10;17.77;;;0.80;99.90;;;;;;5001056;28;21031;-73
2023/03/01 01:52:53;;;;;;;22.20;16.57;;;0.70;99.90;;;;;;4971992;28;20848;-71
2023/03/01 01:55:23;;;;;;;22.03;18.07;;;0.80;99.90;;;;;;4996438;28;20440;-70
2023/03/01 01:57:54;;;;;;;21.03;17.10;;;0.80;99.90;;;;;;4990025;28;20418;-71
2023/03/01 02:00:26;;;;;;;20.90;16.97;;;0.80;99.90;;;;;;4995083;28;20405;-72
2023/03/01 02:03:03;;;;;;;23.37;16.60;;;0.80;99.90;;;;;;4979304;28;20517;-74
2023/03/01 02:05:52;;;;;;;21.40;18.10;;;0.90;99.90;;;;;;5002879;28;20451;-74
2023/03/01 02:08:20;;;;;;;22.57;16.43;;;1.00;99.90;;;;;;4997603;28;20958;-71
2023/03/01 02:10:48;;;;;;;24.47;17.30;;;1.10;99.90;;;;;;4999383;28;20420;-71
2023/03/01 02:13:15;;;;;;;21.87;16.57;;;1.20;99.90;;;;;;5000291;28;20512;-73
2023/03/01 02:15:43;;;;;;;21.40;17.40;;;1.10;99.90;;;;;;4986527;28;20825;-72
2023/03/01 02:18:11;;;;;;;19.33;16.07;;;1.10;99.90;;;;;;4986705;28;20435;-74
2023/03/01 02:21:08;;;;;;;22.53;17.80;;;1.20;99.90;;;;;;4996994;28;20730;-70
2023/03/01 02:23:34;;;;;;;23.30;16.20;;;1.30;99.90;;;;;;5001815;28;20778;-71
2023/03/01 02:26:35;;;;;;;21.10;16.90;;;1.50;99.90;;;;;;4986779;28;20439;-71
2023/03/01 02:29:00;;;;;;;25.33;19.13;;;1.60;99.90;;;;;;4956897;28;20198;-71
2023/03/01 02:31:41;;;;;;;21.27;16.83;;;1.70;99.90;;;;;;4997047;28;20775;-71
2023/03/01 02:34:10;;;;;;;21.97;17.97;;;1.90;99.90;;;;;;5002636;28;20171;-73
2023/03/01 02:36:42;;;;;;;19.77;16.90;;;2.00;99.90;;;;;;4985260;28;20584;-74
2023/03/01 02:39:16;;;;;;;22.87;17.50;;;2.00;99.90;;;;;;4999609;28;20424;-71
2023/03/01 02:41:46;;;;;;;20.53;17.10;;;1.90;99.90;;;;;;4983436;28;20881;-73
2023/03/01 02:44:12;;;;;;;20.10;16.47;;;1.90;99.90;;;;;;4977076;28;20427;-74
2023/03/01 02:47:04;;;;;;;21.33;16.03;;;2.00;99.90;;;;;;5000380;28;20810;-71
2023/03/01 02:49:34;;;;;;;19.17;16.57;;;2.00;99.90;;;;;;4989762;28;20188;-70
2023/03/01 02:52:29;;;;;;;21.40;18.17;;;2.00;99.90;;;;;;4992159;28;20444;-70
2023/03/01 02:55:04;;;;;;;20.30;16.80;;;1.90;99.90;;;;;;4996025;28;20514;-71
2023/03/01 02:57:32;;;;;;;22.13;17.80;;;1.90;99.90;;;;;;4995410;28;20439;-70
2023/03/01 03:00:06;;;;;;;22.17;17.47;;;1.90;99.90;;;;;;4985712;28;20423;-69
2023/03/01 03:02:35;;;;;;;20.53;16.90;;;2.10;99.90;;;;;;4985621;28;20514;-72
2023/03/01 03:05:06;;;;;;;23.07;17.37;;;2.20;99.90;;;;;;4993737;28;20432;-73
2023/03/01 03:07:33;;;;;;;21.60;17.80;;;2.20;99.90;;;;;;4988584;28;20404;-73
2023/03/01 03:10:00;;;;;;;24.20;18.10;;;2.20;99.90;;;;;;4999669;28;20419;-71
2023/03/01 03:12:25;;;;;;;18.87;15.67;;;2.20;99.90;;;;;;5005025;28;20426;-74
2023/03/01 03:14:51;;;;;;;22.27;16.97;;;2.40;99.90;;;;;;5003452;28;20901;-72
2023/03/01 03:17:16;;;;;;;19.73;16.97;;;2.30;99.90;;;;;;4991476;28;20287;-73
2023/03/01 03:19:45;;;;;;;21.60;17.70;;;2.30;99.90;;;;;;4977602;28;20184;-74
2023/03/01 03:22:11;;;;;;;21.47;18.10;;;2.30;99.90;;;;;;5002752;28;20200;-73
2023/03/01 03:24:37;;;;;;;20.07;17.07;;;2.30;99.90;;;;;;5004834;28;20520;-73
2023/03/01 03:27:04;;;;;;;20.27;17.10;;;2.20;99.90;;;;;;4997632;28;20467;-75
2023/03/01 03:29:29;;;;;;;21.97;17.73;;;2.20;99.90;;;;;;5004243;28;20427;-73
2023/03/01 03:31:55;;;;;;;20.60;17.00;;;2.20;99.90;;;;;;5003923;28;20417;-73
2023/03/01 03:34:20;;;;;;;20.37;17.17;;;2.30;99.90;;;;;;4967075;28;20176;-74
2023/03/01 03:36:46;;;;;;;25.27;19.23;;;2.30;99.90;;;;;;4984839;28;20204;-72
2023/03/01 03:39:11;;;;;;;21.90;17.50;;;2.20;99.90;;;;;;4985044;28;20184;-71
2023/03/01 03:41:37;;;;;;;22.90;18.10;;;2.20;99.90;;;;;;4986920;28;20192;-74
2023/03/01 03:44:02;;;;;;;19.00;16.23;;;2.20;99.90;;;;;;4995675;28;20286;-70
2023/03/01 03:46:28;;;;;;;25.77;17.63;;;2.20;99.90;;;;;;4991392;28;20298;-72
2023/03/01 03:48:54;;;;;;;20.37;15.97;;;2.30;99.90;;;;;;4997173;28;20187;-74
2023/03/01 03:51:19;;;;;;;24.20;18.73;;;2.30;99.90;;;;;;5001290;28;20259;-72
2023/03/01 03:53:45;;;;;;;19.23;17.13;;;2.30;99.90;;;;;;4993532;28;20180;-72
2023/03/01 03:56:11;;;;;;;24.50;17.50;;;2.30;99.90;;;;;;4994008;28;20701;-73
2023/03/01 03:58:37;;;;;;;20.07;16.33;;;2.40;99.90;;;;;;4991260;28;20550;-73
2023/03/01 04:01:03;;;;;;;22.30;17.93;;;2.50;99.90;;;;;;4985147;28;20510;-72
2023/03/01 04:03:30;;;;;;;20.07;17.00;;;2.50;99.90;;;;;;4994585;28;20571;-75
2023/03/01 04:05:58;;;;;;;21.43;17.90;;;2.50;99.90;;;;;;4989579;28;20249;-75
2023/03/01 04:08:24;;;;;;;21.93;17.17;;;2.60;99.90;;;;;;4980648;28;20416;-72
2023/03/01 04:10:52;;;;;;;19.53;16.10;;;2.60;99.90;;;;;;4988476;28;20412;-73
2023/03/01 04:13:20;;;;;;;20.30;17.60;;;2.50;99.90;;;;;;4987104;28;20682;-70
2023/03/01 04:15:48;;;;;;;21.30;16.33;;;2.50;99.90;;;;;;5003788;28;20549;-71
2023/03/01 04:18:15;;;;;;;20.87;17.43;;;2.60;99.90;;;;;;4994150;28;21140;-75
2023/03/01 04:20:42;;;;;;;21.57;17.70;;;2.60;99.90;;;;;;4991377;28;21015;-74
2023/03/01 04:23:13;;;;;;;22.43;17.80;;;2.70;99.90;;;;;;4993237;28;20450;-72
2023/03/01 04:25:59;;;;;;;21.20;17.60;;;2.70;99.90;;;;;;5003557;28;20527;-72
2023/03/01 04:28:30;;;;;;;23.47;18.73;;;2.70;99.90;;;;;;4997636;28;20414;-73
2023/03/01 04:30:57;;;;;;;20.23;18.10;;;2.70;99.90;;;;;;4985957;28;20949;-71
2023/03/01 04:33:24;;;;;;;22.30;18.63;;;2.70;99.90;;;;;;4982219;28;20848;-73
2023/03/01 04:35:50;;;;;;;20.90;16.23;;;2.70;99.90;;;;;;4992227;28;20427;-76
2023/03/01 04:38:17;;;;;;;22.70;18.40;;;2.60;99.90;;;;;;4992716;28;20577;-71
2023/03/01 04:40:43;;;;;;;22.13;16.77;;;2.70;99.90;;;;;;4984243;28;20423;-70
2023/03/01 04:43:10;;;;;;;23.27;19.17;;;2.80;99.90;;;;;;4966092;28;20501;-72
2023/03/01 04:45:36;;;;;;;21.20;17.97;;;2.90;99.90;;;;;;4988176;28;20200;-72
2023/03/01 04:48:02;;;;;;;21.90;16.67;;;3.00;99.90;;;;;;5001134;28;20939;-73
2023/03/01 04:50:29;;;;;;;23.93;18.87;;;3.00;99.90;;;;;;4992018;28;20241;-72
2023/03/01 04:52:58;;;;;;;24.03;18.03;;;3.00;99.90;;;;;;4999043;28;20798;-72
2023/03/01 04:55:27;;;;;;;19.90;17.40;;;3.00;99.90;;;;;;4990327;28;20439;-72
2023/03/01 04:57:53;;;;;;;22.03;18.40;;;3.00;99.90;;;;;;4984755;28;21285;-72
2023/03/01 05:00:20;;;;;;;19.87;16.80;;;2.90;99.90;;;;;;4984343;28;20419;-71
2023/03/01 05:02:53;;;;;;;22.27;17.63;;;3.00;99.90;;;;;;4975215;28;20489;-73
2023/03/01 05:05:20;;;;;;;22.13;17.27;;;3.10;99.90;;;;;;4995779;28;20624;-71
2023/03/01 05:07:46;;;;;;;22.20;18.70;;;3.00;99.90;;;;;;5003485;28;20490;-75
2023/03/01 05:10:11;;;;;;;22.60;20.20;;;3.10;99.90;;;;;;4981127;28;20502;-74
2023/03/01 05:12:37;;;;;;;22.87;18.00;;;2.90;99.90;;;;;;4998974;28;20184;-74
2023/03/01 05:15:06;;;;;;;21.57;17.47;;;2.80;99.90;;;;;;5002317;28;20205;-73
2023/03/01 05:17:35;;;;;;;25.03;19.77;;;2.90;99.90;;;;;;5005057;28;20172;-74
2023/03/01 05:20:02;;;;;;;20.03;17.93;;;3.00;99.90;;;;;;4998371;28;20984;-73
2023/03/01 05:22:28;;;;;;;22.90;17.83;;;3.10;99.90;;;;;;5006796;28;20454;-74
2023/03/01 05:24:54;;;;;;;22.03;17.83;;;2.90;99.90;;;;;;4995366;28;20922;-74
2023/03/01 05:27:22;;;;;;;27.90;20.20;;;2.70;99.90;;;;;;5000007;28;20481;-72
2023/03/01 05:29:47;;;;;;;23.70;18.70;;;2.70;99.90;;;;;;4993877;28;20415;-76
2023/03/01 05:32:15;;;;;;;24.67;19.90;;;2.80;99.90;;;;;;4991393;28;20450;-71
2023/03/01 05:34:41;;;;;;;24.33;19.97;;;2.70;99.90;;;;;;4988043;28;20176;-71
2023/03/01 05:37:07;;;;;;;25.03;19.33;;;2.50;99.90;;;;;;4987275;28;20411;-72
2023/03/01 05:39:33;;;;;;;22.33;19.93;;;2.30;99.90;;;;;;4998556;28;20426;-71
2023/03/01 05:42:00;;;;;;;27.03;21.07;;;2.40;99.90;;;;;;4970877;28;20841;-74
2023/03/01 05:44:28;;;;;;;21.50;17.70;;;2.50;99.90;;;;;;5004861;28;20783;-72
2023/03/01 05:46:54;;;;;;;23.50;17.73;;;2.50;99.90;;;;;;4986834;28;20443;-72
2023/03/01 05:49:23;;;;;;;20.13;18.00;;;2.80;99.90;;;;;;5002466;28;20419;-71
2023/03/01 05:51:51;;;;;;;25.10;19.60;;;2.80;99.90;;;;;;5006009;28;20795;-72
2023/03/01 05:54:18;;;;;;;24.80;19.37;;;2.90;99.90;;;;;;4986613;28;20451;-73
2023/03/01 05:56:44;;;;;;;24.57;19.63;;;2.80;99.90;;;;;;4986624;28;20485;-74
2023/03/01 05:59:10;;;;;;;25.37;18.83;;;2.60;99.90;;;;;;4988448;28;20432;-73
2023/03/01 06:01:36;;;;;;;22.67;18.77;;;2.60;99.90;;;;;;4985740;28;20443;-71
2023/03/01 06:04:02;;;;;;;23.20;20.70;;;2.80;99.90;;;;;;4987111;28;20169;-74
2023/03/01 06:06:28;;;;;;;31.20;21.70;;;2.80;99.90;;;;;;4988429;28;20542;-71
2023/03/01 06:08:54;;;;;;;26.83;20.60;;;3.00;99.90;;;;;;4986970;28;20412;-72
2023/03/01 06:11:20;;;;;;;26.67;20.80;;;3.00;99.90;;;;;;4988620;28;20939;-73
2023/03/01 06:13:47;;;;;;;26.70;20.40;;;3.00;99.90;;;;;;5006232;28;20207;-71
2023/03/01 06:16:13;;;;;;;23.80;19.20;;;3.10;99.90;;;;;;5002588;28;20972;-73
2023/03/01 06:18:40;;;;;;;28.00;20.43;;;2.80;99.90;;;;;;4997962;28;20411;-73
2023/03/01 06:21:07;;;;;;;30.30;21.43;;;2.80;99.90;;;;;;4992836;28;20491;-71
2023/03/01 06:23:33;;;;;;;24.20;18.73;;;2.80;99.90;;;;;;5001385;28;20426;-74
2023/03/01 06:25:59;;;;;;;26.70;20.90;;;2.80;99.90;;;;;;5003123;28;20465;-72
2023/03/01 06:28:24;;;;;;;21.47;18.77;;;3.00;99.90;;;;;;5001085;28;20891;-75
2023/03/01 06:30:51;;;;;;;24.07;18.70;;;3.10;99.90;;;;;;5001476;28;20185;-70
2023/03/01 06:33:19;;;;;;;24.03;19.90;;;2.80;99.90;;;;;;5005852;28;20180;-71
2023/03/01 06:35:44;;;;;;;23.23;19.03;;;2.80;99.90;;;;;;5000377;28;20457;-72
2023/03/01 06:38:10;;;;;;;22.63;19.70;;;2.70;99.90;;;;;;4998210;28;20419;-71
2023/03/01 06:40:35;;;;;;;27.60;21.07;;;2.60;99.90;;;;;;4990041;28;20180;-71
2023/03/01 06:43:01;;;;;;;25.90;19.80;;;2.60;99.90;;;;;;4999988;28;20739;-72
2023/03/01 06:45:27;;;;;;;29.20;21.07;;;2.50;99.90;;;;;;4991027;28;20207;-72
2023/03/01 06:48:00;;;;;;;27.10;19.70;;;2.60;99.90;;;;;;4992515;28;20423;-73
2023/03/01 06:50:26;;;;;;;26.10;19.80;;;2.40;99.90;;;;;;4993261;28;20171;-72
2023/03/01 06:52:56;;;;;;;25.17;20.10;;;2.30;99.90;;;;;;4990549;28;20446;-74
2023/03/01 06:55:21;;;;;;;23.63;20.80;;;2.20;99.90;;;;;;5005820;28;20206;-73
2023/03/01 06:57:47;;;;;;;31.00;19.87;;;2.10;99.90;;;;;;5005884;28;20418;-73
2023/03/01 07:00:13;;;;;;;23.80;20.43;;;2.00;99.90;;;;;;5003577;28;20192;-73
2023/03/01 07:02:39;;;;;;;28.77;20.67;;;2.30;99.90;;;;;;5002875;28;20295;-72
2023/03/01 07:05:05;;;;;;;25.73;20.43;;;2.10;99.90;;;;;;5002118;28;20996;-70
2023/03/01 07:07:30;;;;;;;22.73;18.87;;;2.30;99.90;;;;;;4993530;28;20670;-70
2023/03/01 07:09:56;;;;;;;28.10;20.80;;;2.30;99.90;;;;;;4989290;28;20492;-72
2023/03/01 07:12:21;;;;;;;32.50;21.20;;;2.10;99.90;;;;;;4989747;28;20188;-72
2023/03/01 07:14:48;;;;;;;27.73;21.33;;;2.00;99.90;;;;;;4988407;28;20204;-73
2023/03/01 07:17:13;;;;;;;23.07;19.77;;;1.80;99.90;;;;;;4990278;28;20510;-72
2023/03/01 07:19:39;;;;;;;26.93;20.83;;;1.80;99.90;;;;;;4996096;28;20183;-72
2023/03/01 07:22:07;;;;;;;29.00;20.30;;;1.80;99.90;;;;;;4994330;28;20239;-73
2023/03/01 07:24:33;;;;;;;27.33;20.87;;;1.90;99.90;;;;;;4997432;28;20184;-74
2023/03/01 07:26:58;;;;;;;29.87;22.77;;;1.90;99.90;;;;;;5001490;28;20443;-71
2023/03/01 07:29:24;;;;;;;27.30;21.07;;;2.00;99.90;;;;;;4987830;28;20424;-71
2023/03/01 07:31:50;;;;;;;30.20;21.03;;;1.90;99.90;;;;;;4985487;28;20262;-72
2023/03/01 07:34:15;;;;;;;25.40;21.43;;;1.80;99.90;;;;;;4977080;28;20203;-70
2023/03/01 07:36:42;;;;;;;29.23;21.50;;;1.90;99.90;;;;;;4985386;28;20227;-73
2023/03/01 07:39:09;;;;;;;23.20;19.83;;;2.20;99.90;;;;;;4994944;28;20184;-73
2023/03/01 07:41:35;;;;;;;28.30;21.30;;;2.10;99.90;;;;;;5001024;28;20501;-74
2023/03/01 07:44:00;;;;;;;27.90;20.93;;;2.10;99.90;;;;;;5003727;28;20455;-72
2023/03/01 07:46:26;;;;;;;31.00;21.90;;;2.10;99.90;;;;;;4985913;28;20270;-69
2023/03/01 07:48:51;;;;;;;27.50;21.60;;;2.10;99.90;;;;;;4985105;28;20192;-71
2023/03/01 07:51:17;;;;;;;26.13;21.20;;;2.00;99.90;;;;;;4994590;28;20262;-71
2023/03/01 07:53:47;;;;;;;29.27;21.10;;;2.20;99.90;;;;;;5003205;28;20222;-74
2023/03/01 07:56:14;;;;;;;25.13;20.70;;;2.40;99.90;;;;;;4998464;28;20217;-71
2023/03/01 07:58:43;;;;;;;27.87;20.00;;;2.70;99.90;;;;;;4984702;28;21025;-72
2023/03/01 08:01:14;;;;;;;24.53;20.77;;;2.50;99.90;;;;;;4995977;28;20530;-70
2023/03/01 08:03:40;;;;;;;27.90;21.50;;;2.20;99.90;;;;;;4994696;28;20442;-72
2023/03/01 08:06:08;;;;;;;27.83;22.07;;;2.00;99.90;;;;;;4998420;28;20537;-74
2023/03/01 08:08:34;;;;;;;25.87;19.97;;;2.20;99.90;;;;;;5000425;28;20544;-74
2023/03/01 08:11:01;;;;;;;27.40;20.73;;;2.20;99.90;;;;;;4989666;28;20515;-72
2023/03/01 08:13:27;;;;;;;25.70;20.17;;;2.40;99.90;;;;;;5000961;28;20183;-71
2023/03/01 08:15:52;;;;;;;28.90;22.17;;;2.60;99.90;;;;;;4976533;28;20523;-72
2023/03/01 08:18:20;;;;;;;27.63;21.40;;;2.70;99.90;;;;;;4994174;28;20687;-78
2023/03/01 08:20:46;;;;;;;29.33;20.77;;;2.70;99.90;;;;;;4994840;28;20414;-72
2023/03/01 08:23:12;;;;;;;27.23;21.70;;;2.70;99.90;;;;;;4984524;28;20453;-72
2023/03/01 08:25:38;;;;;;;26.03;20.87;;;2.80;99.90;;;;;;5002118;28;20440;-73
2023/03/01 08:28:04;;;;;;;31.97;23.37;;;2.70;99.90;;;;;;5003575;28;20413;-72
2023/03/01 08:30:30;;;;;;;26.60;20.40;;;2.70;99.90;;;;;;4995644;28;20801;-71
2023/03/01 08:32:56;;;;;;;28.20;21.90;;;2.70;99.90;;;;;;4984786;28;20541;-72
2023/03/01 08:35:21;;;;;;;26.60;22.13;;;2.70;99.90;;;;;;5001190;28;20203;-72
2023/03/01 08:37:47;;;;;;;27.07;21.47;;;2.90;99.90;;;;;;4984804;28;20650;-73
2023/03/01 08:40:13;;;;;;;28.87;21.83;;;3.00;99.90;;;;;;5002502;28;20186;-73
2023/03/01 08:42:40;;;;;;;28.50;21.20;;;2.80;99.90;;;;;;4999154;28;20235;-73
2023/03/01 08:45:07;;;;;;;31.13;23.57;;;2.60;99.90;;;;;;4999915;28;20439;-73
2023/03/01 08:47:33;;;;;;;27.60;21.47;;;2.70;99.90;;;;;;5000034;28;20407;-73
2023/03/01 08:49:59;;;;;;;24.83;20.93;;;2.70;99.90;;;;;;4995857;28;20996;-74
2023/03/01 08:52:25;;;;;;;29.10;21.97;;;2.70;99.90;;;;;;4971887;28;20445;-74
2023/03/01 08:54:51;;;;;;;25.43;21.30;;;2.70;99.90;;;;;;5002456;28;20427;-74
2023/03/01 08:57:17;;;;;;;27.63;22.27;;;2.70;99.90;;;;;;4985968;28;20437;-72
2023/03/01 08:59:43;;;;;;;28.67;22.43;;;2.80;99.90;;;;;;4973083;28;20892;-74
2023/03/01 09:02:12;;;;;;;28.40;21.70;;;3.00;99.90;;;;;;4998929;28;20231;-74
2023/03/01 09:04:38;;;;;;;26.73;22.30;;;2.80;99.90;;;;;;5006443;22;20963;-71
2023/03/01 09:07:04;;;;;;;31.83;21.13;;;3.00;99.90;;;;;;4987575;28;20408;-69
2023/03/01 09:09:30;;;;;;;28.70;21.70;;;3.20;99.90;;;;;;4988060;28;20176;-69
2023/03/01 09:11:55;;;;;;;27.07;21.67;;;3.10;99.90;;;;;;4987863;28;20503;-67
2023/03/01 09:14:21;;;;;;;28.20;21.63;;;3.10;99.90;;;;;;4987529;28;20208;-71
2023/03/01 09:16:46;;;;;;;26.93;21.07;;;3.20;99.90;;;;;;4987501;28;20188;-70
2023/03/01 09:19:12;;;;;;;34.83;23.67;;;3.20;99.90;;;;;;4983703;28;20203;-70
2023/03/01 09:21:38;;;;;;;28.87;23.13;;;3.10;99.90;;;;;;4987037;28;20203;-70
2023/03/01 09:24:03;;;;;;;31.43;21.07;;;3.10;99.90;;;;;;4987994;28;20435;-70
2023/03/01 09:26:29;;;;;;;25.50;21.73;;;3.30;99.90;;;;;;4987263;28;20598;-70
2023/03/01 09:28:56;;;;;;;27.07;21.97;;;3.60;99.90;;;;;;4987429;28;20184;-72
2023/03/01 09:31:23;;;;;;;32.40;23.10;;;3.40;99.90;;;;;;4987043;28;20176;-70
2023/03/01 09:33:52;;;;;;;28.80;22.80;;;3.40;99.90;;;;;;4987500;28;20423;-70
2023/03/01 09:36:20;;;;;;;30.30;22.20;;;3.40;99.90;;;;;;4987550;28;20938;-69
2023/03/01 09:38:47;;;;;;;27.23;22.87;;;3.50;99.90;;;;;;4986996;28;20417;-71
2023/03/01 09:41:37;;;;;;;29.47;22.00;;;3.50;99.90;;;;;;4987573;28;20944;-69
2023/03/01 09:44:08;;;;;;;28.90;22.80;;;3.60;99.90;;;;;;4988022;28;20439;-70
2023/03/01 09:46:41;;;;;;;32.60;22.13;;;3.70;99.90;;;;;;4987438;28;20569;-70
2023/03/01 09:49:16;;;;;;;29.57;23.43;;;4.00;99.90;;;;;;4987921;28;20415;-69
2023/03/01 09:51:47;;;;;;;26.87;21.60;;;4.20;99.90;;;;;;4987691;28;20419;-70
2023/03/01 09:54:13;;;;;;;32.50;22.13;;;4.40;99.90;;;;;;4987504;28;20930;-70
2023/03/01 09:56:53;;;;;;;32.90;23.83;;;4.60;99.90;;;;;;4988611;28;20424;-71
2023/03/01 09:59:33;;;;;;;25.27;20.20;;;4.80;99.90;;;;;;4981959;28;20204;-69
2023/03/01 10:02:17;;;;;;;22.40;19.80;;;4.60;99.90;;;;;;4989476;28;20840;-70
2023/03/01 10:04:48;;;;;;;22.00;18.90;;;4.60;99.90;;;;;;4987348;28;20478;-72
2023/03/01 10:07:32;;;;;;;25.97;21.13;;;4.60;99.90;;;;;;4983072;28;20420;-72
2023/03/01 10:09:58;;;;;;;24.03;19.87;;;4.70;99.90;;;;;;4987603;28;20441;-71
2023/03/01 10:12:30;;;;;;;22.63;19.93;;;4.80;99.90;;;;;;4973299;28;21347;-69
2023/03/01 10:15:14;;;;;;;26.13;21.17;;;4.80;99.90;;;;;;4987206;28;20486;-73
2023/03/01 10:17:55;;;;;;;26.43;20.43;;;5.00;99.90;;;;;;4986768;28;20429;-74
2023/03/01 10:20:24;;;;;;;26.67;21.87;;;5.10;99.90;;;;;;4987047;28;20604;-73
2023/03/01 10:22:52;;;;;;;27.20;21.23;;;5.00;99.90;;;;;;4977286;28;20448;-75
2023/03/01 10:25:44;;;;;;;28.77;21.47;;;4.80;99.90;;;;;;4987404;28;20456;-73
2023/03/01 10:28:17;;;;;;;27.40;20.63;;;5.10;99.90;;;;;;4986069;28;20427;-71
2023/03/01 10:30:43;;;;;;;26.70;20.43;;;5.50;99.90;;;;;;4985810;28;20747;-70
2023/03/01 10:33:24;;;;;;;23.60;20.30;;;5.60;99.90;;;;;;4985833;28;20861;-69
2023/03/01 10:35:50;;;;;;;27.10;21.10;;;5.60;99.90;;;;;;4986256;28;20779;-71
2023/03/01 10:38:17;;;;;;;23.70;20.00;;;5.80;99.90;;;;;;4986304;28;20415;-69
2023/03/01 10:40:59;;;;;;;21.47;18.37;;;5.80;99.90;;;;;;4972314;28;20192;-73
2023/03/01 10:43:57;;;;;;;28.67;21.00;;;5.80;99.90;;;;;;4985803;28;20834;-69
2023/03/01 10:46:28;;;;;;;24.17;19.90;;;5.90;99.90;;;;;;4985836;28;20524;-69
2023/03/01 10:49:15;;;;;;;24.80;19.70;;;6.10;99.90;;;;;;4985865;28;20411;-70
2023/03/01 10:51:46;;;;;;;24.20;19.73;;;6.10;99.90;;;;;;4985864;28;20454;-68
2023/03/01 10:54:27;;;;;;;22.80;20.13;;;5.80;99.90;;;;;;4985522;28;20435;-71
2023/03/01 10:57:05;;;;;;;23.73;20.17;;;5.80;99.90;;;;;;4985560;28;20416;-69
2023/03/01 10:59:36;;;;;;;24.07;19.77;;;5.50;99.90;;;;;;4986291;28;20433;-68
2023/03/01 11:02:01;;;;;;;24.63;19.63;;;5.70;99.90;;;;;;4986005;28;20447;-72
2023/03/01 11:04:27;;;;;;;24.67;19.77;;;5.80;99.90;;;;;;4985377;28;21216;-71
2023/03/01 11:06:59;;;;;;;25.03;21.20;;;5.90;99.90;;;;;;4985448;28;20255;-70
2023/03/01 11:09:27;;;;;;;24.47;19.43;;;6.20;99.90;;;;;;4983993;28;20199;-73
2023/03/01 11:11:57;;;;;;;21.80;18.97;;;6.40;99.90;;;;;;4984939;28;20418;-73
2023/03/01 11:14:32;;;;;;;23.50;18.10;;;6.50;99.90;;;;;;4985130;28;20447;-71
2023/03/01 11:17:22;;;;;;;25.43;19.10;;;6.30;99.90;;;;;;4974417;28;20409;-70
2023/03/01 11:20:19;;;;;;;23.07;17.97;;;6.40;99.70;;;;;;4976726;28;20799;-71
2023/03/01 11:22:52;;;;;;;21.40;17.37;;;6.80;99.30;;;;;;4984134;28;20945;-72
2023/03/01 11:25:24;;;;;;;21.63;18.83;;;7.70;98.60;;;;;;4984884;28;20422;-72
2023/03/01 11:27:50;;;;;;;24.77;19.67;;;9.10;96.50;;;;;;4983717;28;20466;-74
2023/03/01 11:30:37;;;;;;;23.30;19.20;;;9.60;93.90;;;;;;4984485;28;20422;-71
2023/03/01 11:33:16;;;;;;;21.40;19.10;;;9.40;94.20;;;;;;4984799;28;20245;-74
2023/03/01 11:35:55;;;;;;;22.83;19.20;;;10.10;92.50;;;;;;4985560;28;20407;-74
2023/03/01 11:38:26;;;;;;;22.60;20.20;;;11.30;91.30;;;;;;4984223;28;20415;-68
2023/03/01 11:41:02;;;;;;;21.37;16.97;;;12.30;86.10;;;;;;4984280;28;20472;-69
2023/03/01 11:43:52;;;;;;;21.07;17.53;;;11.70;84.80;;;;;;4983803;28;20825;-69
2023/03/01 11:46:31;;;;;;;21.10;18.90;;;12.80;83.80;;;;;;4983121;28;20821;-70
2023/03/01 11:49:03;;;;;;;20.47;18.37;;;13.70;79.00;;;;;;4983856;28;20415;-71
2023/03/01 11:51:37;;;;;;;21.70;18.23;;;13.10;78.00;;;;;;4984031;28;20446;-70
2023/03/01 11:54:15;;;;;;;20.53;18.10;;;11.90;79.50;;;;;;4984178;28;20443;-70
2023/03/01 11:56:55;;;;;;;19.97;17.60;;;11.20;80.60;;;;;;4984100;28;20408;-71
2023/03/01 11:59:45;;;;;;;20.07;18.07;;;10.70;82.80;;;;;;4984609;28;20459;-70
2023/03/01 12:02:32;;;;;;;21.50;18.27;;;11.60;82.00;;;;;;4983748;28;20897;-70
2023/03/01 12:05:14;;;;;;;21.63;18.77;;;12.10;79.00;;;;;;4984433;28;20461;-70
2023/03/01 12:07:48;;;;;;;21.30;19.10;;;12.90;78.20;;;;;;4984366;28;20412;-71
2023/03/01 12:10:26;;;;;;;21.43;19.20;;;13.00;75.60;;;;;;4983709;28;20403;-71
2023/03/01 12:13:05;;;;;;;19.60;17.50;;;13.80;74.70;;;;;;4983888;28;20412;-70
2023/03/01 12:15:30;;;;;;;24.60;20.10;;;14.20;73.00;;;;;;4983424;28;20699;-73
2023/03/01 12:18:13;;;;;;;20.17;18.07;;;13.50;73.10;;;;;;4983494;28;20948;-71
2023/03/01 12:20:44;;;;;;;20.00;17.90;;;13.80;73.20;;;;;;4984007;28;20229;-71
2023/03/01 12:23:31;;;;;;;19.93;17.70;;;14.60;71.40;;;;;;4983771;28;20993;-69
2023/03/01 12:26:08;;;;;;;18.93;16.93;;;14.90;68.40;;;;;;4983879;28;21307;-70
2023/03/01 12:28:55;;;;;;;19.43;17.43;;;14.00;69.40;;;;;;4983808;28;20781;-70
2023/03/01 12:31:42;;;;;;;21.07;18.87;;;14.40;69.40;;;;;;4983642;28;20490;-70
2023/03/01 12:34:25;;;;;;;18.87;17.10;;;14.80;67.80;;;;;;4983874;28;20451;-70
2023/03/01 12:37:03;;;;;;;19.53;17.63;;;14.30;67.80;;;;;;4983908;28;20419;-70
2023/03/01 12:39:45;;;;;;;24.53;18.67;;;14.80;67.20;;;;;;4983986;28;21071;-71
2023/03/01 12:42:22;;;;;;;20.17;17.93;;;13.00;70.00;;;;;;4983884;28;20827;-70
2023/03/01 12:45:39;;;;;;;20.00;17.97;;;12.80;71.30;;;;;;4984702;28;20848;-71
2023/03/01 12:48:22;;;;;;;21.90;18.20;;;12.10;73.20;;;;;;4983329;28;20886;-71
2023/03/01 12:50:51;;;;;;;18.77;16.77;;;13.00;71.90;;;;;;4984129;28;20496;-75